createdAt,value
2023-02-27T00:02:11.485Z,78.29
2023-02-27T00:04:37.954Z,78.18
2023-02-27T00:07:04.503Z,78.27
2023-02-27T00:09:30.922Z,78.14
2023-02-27T00:11:57.362Z,78.11
2023-02-27T00:14:23.857Z,78.17
2023-02-27T00:16:50.544Z,78.22
2023-02-27T00:19:17.023Z,78.22
2023-02-27T00:21:43.968Z,77.99
2023-02-27T00:24:11.035Z,77.93
2023-02-27T00:26:37.540Z,78.14
2023-02-27T00:29:04.824Z,78.02
2023-02-27T00:31:31.485Z,77.89
2023-02-27T00:33:58.485Z,77.89
2023-02-27T00:36:24.932Z,77.92
2023-02-27T00:38:51.377Z,77.83
2023-02-27T00:41:17.942Z,77.97
2023-02-27T00:43:44.580Z,77.98
2023-02-27T00:46:11.453Z,77.98
2023-02-27T00:48:38.034Z,77.88
2023-02-27T00:51:04.866Z,77.85
2023-02-27T00:53:31.347Z,77.93
2023-02-27T00:55:57.886Z,78.04
2023-02-27T00:58:24.433Z,78.03
2023-02-27T01:00:51.039Z,77.94
2023-02-27T01:03:17.539Z,77.75
2023-02-27T01:05:44.080Z,77.88
2023-02-27T01:08:10.607Z,77.90
2023-02-27T01:10:37.109Z,77.82
2023-02-27T01:13:06.443Z,77.66
2023-02-27T01:15:33.682Z,77.74
2023-02-27T01:18:00.425Z,77.68
2023-02-27T01:20:28.125Z,77.48
2023-02-27T01:22:54.622Z,77.50
2023-02-27T01:25:21.059Z,77.50
2023-02-27T01:27:47.598Z,77.58
2023-02-27T01:30:16.220Z,77.44
2023-02-27T01:32:44.609Z,77.50
2023-02-27T01:35:11.274Z,77.54
2023-02-27T01:37:38.101Z,77.57
2023-02-27T01:40:06.574Z,77.73
2023-02-27T01:42:33.135Z,77.59
2023-02-27T01:45:11.705Z,77.34
2023-02-27T01:47:41.359Z,77.35
2023-02-27T01:50:09.747Z,77.35
2023-02-27T01:52:39.937Z,77.56
2023-02-27T01:55:08.144Z,77.47
2023-02-27T01:57:35.428Z,77.42
2023-02-27T02:00:02.241Z,77.30
2023-02-27T02:02:42.544Z,77.29
2023-02-27T02:05:09.223Z,77.22
2023-02-27T02:07:40.531Z,77.09
2023-02-27T02:10:07.719Z,77.23
2023-02-27T02:12:37.486Z,77.18
2023-02-27T02:15:05.560Z,77.39
2023-02-27T02:17:43.254Z,77.35
2023-02-27T02:20:40.042Z,77.26
2023-02-27T02:23:44.188Z,77.26
2023-02-27T02:26:13.418Z,77.36
2023-02-27T02:28:45.923Z,77.47
2023-02-27T02:31:31.365Z,77.32
2023-02-27T02:34:25.802Z,77.15
2023-02-27T02:36:57.957Z,77.17
2023-02-27T02:39:33.103Z,77.25
2023-02-27T02:42:19.317Z,77.20
2023-02-27T02:45:21.721Z,77.04
2023-02-27T02:48:13.497Z,77.04
2023-02-27T02:50:44.768Z,76.67
2023-02-27T02:53:36.704Z,76.37
2023-02-27T02:56:07.841Z,76.60
2023-02-27T02:59:00.960Z,76.60
2023-02-27T03:01:42.613Z,76.73
2023-02-27T03:04:15.172Z,76.67
2023-02-27T03:06:49.579Z,76.59
2023-02-27T03:09:30.885Z,76.49
2023-02-27T03:12:00.425Z,76.42
2023-02-27T03:14:32.902Z,76.56
2023-02-27T03:17:05.153Z,76.56
2023-02-27T03:19:49.303Z,76.39
2023-02-27T03:22:25.378Z,76.24
2023-02-27T03:24:55.176Z,76.18
2023-02-27T03:27:24.869Z,76.11
2023-02-27T03:29:54.555Z,76.13
2023-02-27T03:32:41.906Z,76.10
2023-02-27T03:35:10.724Z,75.83
2023-02-27T03:38:05.525Z,75.92
2023-02-27T03:40:38.708Z,75.92
2023-02-27T03:43:20.578Z,75.90
2023-02-27T03:46:04.851Z,75.98
2023-02-27T03:48:33.368Z,76.09
2023-02-27T03:51:00.114Z,75.82
2023-02-27T03:53:37.652Z,75.89
2023-02-27T03:56:07.150Z,75.91
2023-02-27T03:58:34.880Z,76.01
2023-02-27T04:01:01.644Z,75.94
2023-02-27T04:03:33.312Z,76.06
2023-02-27T04:06:19.899Z,76.13
2023-02-27T04:09:06.210Z,76.01
2023-02-27T04:11:52.572Z,75.78
2023-02-27T04:14:52.902Z,75.97
2023-02-27T04:17:24.418Z,75.93
2023-02-27T04:20:17.734Z,75.94
2023-02-27T04:22:50.823Z,76.02
2023-02-27T04:25:35.342Z,75.99
2023-02-27T04:28:04.427Z,76.04
2023-02-27T04:30:37.089Z,75.99
2023-02-27T04:33:16.928Z,76.13
2023-02-27T04:35:43.449Z,76.11
2023-02-27T04:38:44.036Z,76.21
2023-02-27T04:41:20.928Z,76.25
2023-02-27T04:43:49.624Z,76.16
2023-02-27T04:46:19.856Z,76.33
2023-02-27T04:49:02.085Z,76.41
2023-02-27T04:51:35.412Z,76.53
2023-02-27T04:54:15.745Z,76.54
2023-02-27T04:56:55.121Z,76.55
2023-02-27T04:59:26.641Z,76.41
2023-02-27T05:02:08.309Z,76.37
2023-02-27T05:04:39.586Z,76.46
2023-02-27T05:07:09.936Z,76.62
2023-02-27T05:09:46.229Z,76.56
2023-02-27T05:12:33.114Z,76.41
2023-02-27T05:15:07.818Z,76.43
2023-02-27T05:17:41.904Z,76.33
2023-02-27T05:20:12.008Z,76.35
2023-02-27T05:22:57.609Z,76.42
2023-02-27T05:25:36.316Z,76.46
2023-02-27T05:28:10.110Z,76.56
2023-02-27T05:30:52.788Z,76.74
2023-02-27T05:33:30.182Z,76.78
2023-02-27T05:36:06.663Z,76.74
2023-02-27T05:38:39.144Z,76.79
2023-02-27T05:41:24.440Z,76.83
2023-02-27T05:43:57.455Z,76.91
2023-02-27T05:46:30.096Z,76.99
2023-02-27T05:49:02.348Z,76.90
2023-02-27T05:51:32.829Z,76.83
2023-02-27T05:54:05.812Z,76.73
2023-02-27T05:56:35.283Z,76.81
2023-02-27T05:59:18.454Z,76.83
2023-02-27T06:01:46.403Z,76.64
2023-02-27T06:04:13.234Z,76.59
2023-02-27T06:06:41.297Z,76.60
2023-02-27T06:09:08.567Z,76.66
2023-02-27T06:11:35.025Z,76.73
2023-02-27T06:14:01.527Z,76.68
2023-02-27T06:16:28.531Z,76.67
2023-02-27T06:18:55.280Z,76.59
2023-02-27T06:21:21.725Z,76.69
2023-02-27T06:23:48.795Z,76.76
2023-02-27T06:26:15.458Z,76.64
2023-02-27T06:28:41.895Z,76.64
2023-02-27T06:31:08.466Z,76.68
2023-02-27T06:33:34.929Z,76.70
2023-02-27T06:36:01.703Z,76.80
2023-02-27T06:38:28.192Z,76.83
2023-02-27T06:40:54.666Z,76.71
2023-02-27T06:43:22.487Z,76.61
2023-02-27T06:45:52.275Z,76.79
2023-02-27T06:48:18.810Z,76.71
2023-02-27T06:50:45.268Z,76.68
2023-02-27T06:53:11.703Z,76.71
2023-02-27T06:55:38.153Z,76.86
2023-02-27T06:58:04.724Z,77.03
2023-02-27T07:00:31.231Z,76.91
2023-02-27T07:02:57.720Z,76.84
2023-02-27T07:05:24.253Z,76.77
2023-02-27T07:07:50.813Z,76.81
2023-02-27T07:10:17.420Z,76.65
2023-02-27T07:12:43.999Z,76.72
2023-02-27T07:15:10.905Z,76.68
2023-02-27T07:17:37.481Z,76.63
2023-02-27T07:20:06.317Z,76.60
2023-02-27T07:22:32.993Z,76.41
2023-02-27T07:24:59.441Z,76.50
2023-02-27T07:27:26.011Z,76.48
2023-02-27T07:29:53.292Z,76.69
2023-02-27T07:32:20.379Z,76.61
2023-02-27T07:34:47.203Z,76.70
2023-02-27T07:37:13.973Z,76.77
2023-02-27T07:39:40.423Z,76.73
2023-02-27T07:42:06.884Z,77.01
2023-02-27T07:44:33.490Z,76.99
2023-02-27T07:46:59.929Z,76.77
2023-02-27T07:49:26.358Z,76.69
2023-02-27T07:51:52.818Z,76.92
2023-02-27T07:54:19.553Z,77.08
2023-02-27T07:56:45.994Z,77.27
2023-02-27T07:59:12.474Z,76.98
2023-02-27T08:01:38.964Z,77.12
2023-02-27T08:04:05.522Z,77.09
2023-02-27T08:06:32.023Z,76.86
2023-02-27T08:08:58.531Z,76.80
2023-02-27T08:11:25.400Z,76.96
2023-02-27T08:14:01.307Z,76.82
2023-02-27T08:16:30.155Z,76.81
2023-02-27T08:18:57.296Z,76.74
2023-02-27T08:21:23.857Z,76.84
2023-02-27T08:23:50.359Z,76.64
2023-02-27T08:26:16.868Z,76.59
2023-02-27T08:28:43.955Z,76.74
2023-02-27T08:31:10.535Z,77.01
2023-02-27T08:33:37.019Z,77.20
2023-02-27T08:36:03.730Z,77.23
2023-02-27T08:38:30.139Z,77.06
2023-02-27T08:40:56.613Z,76.84
2023-02-27T08:43:23.803Z,76.67
2023-02-27T08:45:51.152Z,76.83
2023-02-27T08:48:18.245Z,76.80
2023-02-27T08:50:45.696Z,76.84
2023-02-27T08:53:12.191Z,76.73
2023-02-27T08:55:38.701Z,76.67
2023-02-27T08:58:05.205Z,76.51
2023-02-27T09:00:32.180Z,76.69
2023-02-27T09:02:59.905Z,76.61
2023-02-27T09:05:27.623Z,76.37
2023-02-27T09:07:54.100Z,76.17
2023-02-27T09:10:20.863Z,76.06
2023-02-27T09:12:48.537Z,75.98
2023-02-27T09:15:15.083Z,76.23
2023-02-27T09:17:41.530Z,76.08
2023-02-27T09:20:09.301Z,76.11
2023-02-27T09:22:35.974Z,76.07
2023-02-27T09:25:02.683Z,75.94
2023-02-27T09:27:29.221Z,75.80
2023-02-27T09:29:55.778Z,75.77
2023-02-27T09:32:23.215Z,75.84
2023-02-27T09:34:49.875Z,75.58
2023-02-27T09:37:17.429Z,75.53
2023-02-27T09:39:46.351Z,75.85
2023-02-27T09:42:23.392Z,75.72
2023-02-27T09:44:56.753Z,75.76
2023-02-27T09:47:26.077Z,75.73
2023-02-27T09:49:58.423Z,75.55
2023-02-27T09:52:26.282Z,75.58
2023-02-27T09:54:54.461Z,74.98
2023-02-27T09:57:31.809Z,75.31
2023-02-27T10:00:06.750Z,74.94
2023-02-27T10:02:53.209Z,75.05
2023-02-27T10:05:34.933Z,75.02
2023-02-27T10:08:09.817Z,74.96
2023-02-27T10:10:43.822Z,74.58
2023-02-27T10:13:44.174Z,74.86
2023-02-27T10:16:14.773Z,75.33
2023-02-27T10:18:54.517Z,75.14
2023-02-27T10:21:31.292Z,75.20
2023-02-27T10:24:23.048Z,75.11
2023-02-27T10:26:52.228Z,74.33
2023-02-27T10:29:28.495Z,74.26
2023-02-27T10:32:22.084Z,74.63
2023-02-27T10:35:06.101Z,75.05
2023-02-27T10:37:36.634Z,75.05
2023-02-27T10:40:05.629Z,75.04
2023-02-27T10:42:37.063Z,74.53
2023-02-27T10:45:14.226Z,74.51
2023-02-27T10:47:41.359Z,74.81
2023-02-27T10:50:34.892Z,74.61
2023-02-27T10:53:06.247Z,74.08
2023-02-27T10:55:40.141Z,73.88
2023-02-27T10:58:06.848Z,74.08
2023-02-27T11:00:45.240Z,73.79
2023-02-27T11:03:20.285Z,74.06
2023-02-27T11:05:56.777Z,73.97
2023-02-27T11:08:28.996Z,73.88
2023-02-27T11:10:59.752Z,73.55
2023-02-27T11:13:29.657Z,73.37
2023-02-27T11:16:08.309Z,73.66
2023-02-27T11:18:37.168Z,73.05
2023-02-27T11:21:29.485Z,72.72
2023-02-27T11:23:59.132Z,72.29
2023-02-27T11:26:35.648Z,72.59
2023-02-27T11:29:17.696Z,72.73
2023-02-27T11:31:51.558Z,72.22
2023-02-27T11:34:39.683Z,71.89
2023-02-27T11:37:20.601Z,72.12
2023-02-27T11:39:51.020Z,72.40
2023-02-27T11:42:30.076Z,72.72
2023-02-27T11:45:00.600Z,72.49
2023-02-27T11:47:40.001Z,72.20
2023-02-27T11:50:09.515Z,72.53
2023-02-27T11:52:50.085Z,72.86
2023-02-27T11:55:21.035Z,72.60
2023-02-27T11:57:58.003Z,72.18
2023-02-27T12:00:30.395Z,71.50
2023-02-27T12:03:39.996Z,72.05
2023-02-27T12:06:16.436Z,71.98
2023-02-27T12:08:54.068Z,72.19
2023-02-27T12:11:29.106Z,72.44
2023-02-27T12:14:07.813Z,72.08
2023-02-27T12:16:43.125Z,70.81
2023-02-27T12:19:21.921Z,70.33
2023-02-27T12:21:55.592Z,70.72
2023-02-27T12:24:37.491Z,70.75
2023-02-27T12:27:21.595Z,70.40
2023-02-27T12:29:54.173Z,70.41
2023-02-27T12:32:44.009Z,70.75
2023-02-27T12:35:17.556Z,70.52
2023-02-27T12:37:44.441Z,69.82
2023-02-27T12:40:18.581Z,69.16
2023-02-27T12:43:03.423Z,69.52
2023-02-27T12:45:44.857Z,69.36
2023-02-27T12:48:16.291Z,69.26
2023-02-27T12:50:51.679Z,69.36
2023-02-27T12:53:34.835Z,69.36
2023-02-27T12:56:09.312Z,68.82
2023-02-27T12:59:02.635Z,68.84
2023-02-27T13:01:46.479Z,69.38
2023-02-27T13:04:26.341Z,69.83
2023-02-27T13:07:00.339Z,70.08
2023-02-27T13:09:26.698Z,70.31
2023-02-27T13:12:11.606Z,70.37
2023-02-27T13:14:49.344Z,70.49
2023-02-27T13:17:36.771Z,70.22
2023-02-27T13:20:20.989Z,70.14
2023-02-27T13:22:55.136Z,70.31
2023-02-27T13:25:23.117Z,70.38
2023-02-27T13:28:04.029Z,70.47
2023-02-27T13:31:19.869Z,70.50
2023-02-27T13:34:15.338Z,70.55
2023-02-27T13:36:50.284Z,70.48
2023-02-27T13:39:55.560Z,70.37
2023-02-27T13:42:24.819Z,70.49
2023-02-27T13:45:27.248Z,70.69
2023-02-27T13:47:55.480Z,70.90
2023-02-27T13:50:25.921Z,70.98
2023-02-27T13:52:53.047Z,70.88
2023-02-27T13:55:34.476Z,70.74
2023-02-27T13:58:03.327Z,70.96
2023-02-27T14:00:37.112Z,71.07
2023-02-27T14:03:21.284Z,71.11
2023-02-27T14:05:52.308Z,71.13
2023-02-27T14:08:23.004Z,70.85
2023-02-27T14:10:55.936Z,70.34
2023-02-27T14:13:44.218Z,69.67
2023-02-27T14:16:31.692Z,69.39
2023-02-27T14:19:00.333Z,69.37
2023-02-27T14:21:51.306Z,69.27
2023-02-27T14:24:59.957Z,69.34
2023-02-27T14:27:45.822Z,69.34
2023-02-27T14:30:27.505Z,69.32
2023-02-27T14:32:59.261Z,69.54
2023-02-27T14:35:28.393Z,69.46
2023-02-27T14:37:55.228Z,69.50
2023-02-27T14:40:30.382Z,69.34
2023-02-27T14:43:03.236Z,69.04
2023-02-27T14:45:31.097Z,68.82
2023-02-27T14:47:58.224Z,68.96
2023-02-27T14:50:33.402Z,69.01
2023-02-27T14:53:00.960Z,69.00
2023-02-27T14:55:30.826Z,68.86
2023-02-27T14:58:08.363Z,68.65
2023-02-27T15:00:41.631Z,68.59
2023-02-27T15:03:20.725Z,68.46
2023-02-27T15:05:50.758Z,68.36
2023-02-27T15:08:24.312Z,68.39
2023-02-27T15:10:53.602Z,68.39
2023-02-27T15:13:22.673Z,68.44
2023-02-27T15:15:51.586Z,68.55
2023-02-27T15:18:22.264Z,68.73
2023-02-27T15:20:58.429Z,68.94
2023-02-27T15:23:27.940Z,68.96
2023-02-27T15:25:59.110Z,68.89
2023-02-27T15:28:38.700Z,68.86
2023-02-27T15:31:09.448Z,68.06
2023-02-27T15:33:36.155Z,67.41
2023-02-27T15:36:03.011Z,67.52
2023-02-27T15:38:32.967Z,67.40
2023-02-27T15:41:01.421Z,67.48
2023-02-27T15:43:29.531Z,67.46
2023-02-27T15:45:57.538Z,67.59
2023-02-27T15:48:25.238Z,67.42
2023-02-27T15:50:54.681Z,67.16
2023-02-27T15:53:23.642Z,66.90
2023-02-27T15:55:57.145Z,67.07
2023-02-27T15:58:35.772Z,66.88
2023-02-27T16:01:02.397Z,66.88
2023-02-27T16:03:35.127Z,66.60
2023-02-27T16:06:02.741Z,66.71
2023-02-27T16:08:30.869Z,66.54
2023-02-27T16:10:57.484Z,66.37
2023-02-27T16:13:26.903Z,66.32
2023-02-27T16:16:06.061Z,66.25
2023-02-27T16:18:43.232Z,66.34
2023-02-27T16:21:12.062Z,66.19
2023-02-27T16:23:38.700Z,66.07
2023-02-27T16:26:08.386Z,65.94
2023-02-27T16:28:50.945Z,66.02
2023-02-27T16:31:30.010Z,65.99
2023-02-27T16:34:00.348Z,66.15
2023-02-27T16:36:30.388Z,66.19
2023-02-27T16:38:57.240Z,66.31
2023-02-27T16:41:24.700Z,66.45
2023-02-27T16:43:52.812Z,66.60
2023-02-27T16:46:19.950Z,66.59
2023-02-27T16:48:52.503Z,66.66
2023-02-27T16:51:23.070Z,66.84
2023-02-27T16:53:51.362Z,66.88
2023-02-27T16:56:23.746Z,66.83
2023-02-27T16:59:00.570Z,67.02
2023-02-27T17:01:27.093Z,67.00
2023-02-27T17:03:53.634Z,67.12
2023-02-27T17:06:20.272Z,67.06
2023-02-27T17:08:46.989Z,67.17
2023-02-27T17:11:13.719Z,67.22
2023-02-27T17:13:40.517Z,67.23
2023-02-27T17:16:07.234Z,67.11
2023-02-27T17:18:33.681Z,66.96
2023-02-27T17:21:01.559Z,66.95
2023-02-27T17:23:28.091Z,67.03
2023-02-27T17:25:55.103Z,67.02
2023-02-27T17:28:22.574Z,66.85
2023-02-27T17:30:49.979Z,67.20
2023-02-27T17:33:16.894Z,67.20
2023-02-27T17:35:43.523Z,67.30
2023-02-27T17:38:09.993Z,67.22
2023-02-27T17:40:38.593Z,67.32
2023-02-27T17:43:05.478Z,67.31
2023-02-27T17:45:32.288Z,67.23
2023-02-27T17:47:58.815Z,67.40
2023-02-27T17:50:25.242Z,67.53
2023-02-27T17:52:51.788Z,67.42
2023-02-27T17:55:18.318Z,67.42
2023-02-27T17:57:45.441Z,67.33
2023-02-27T18:00:14.452Z,67.38
2023-02-27T18:02:43.917Z,67.42
2023-02-27T18:05:11.166Z,67.43
2023-02-27T18:07:37.635Z,67.31
2023-02-27T18:10:06.206Z,67.31
2023-02-27T18:12:33.550Z,67.50
2023-02-27T18:15:01.059Z,67.65
2023-02-27T18:17:27.839Z,67.73
2023-02-27T18:19:54.898Z,67.82
2023-02-27T18:22:22.134Z,67.89
2023-02-27T18:24:52.418Z,67.89
2023-02-27T18:27:19.684Z,67.96
2023-02-27T18:29:46.312Z,67.84
2023-02-27T18:32:12.996Z,67.87
2023-02-27T18:34:40.357Z,67.87
2023-02-27T18:37:06.957Z,67.93
2023-02-27T18:39:33.381Z,68.02
2023-02-27T18:42:00.185Z,68.06
2023-02-27T18:44:26.931Z,67.99
2023-02-27T18:46:53.479Z,67.96
2023-02-27T18:49:20.087Z,68.02
2023-02-27T18:51:46.594Z,68.14
2023-02-27T18:54:14.194Z,67.99
2023-02-27T18:56:41.273Z,68.13
2023-02-27T18:59:07.902Z,68.09
2023-02-27T19:01:37.376Z,68.16
2023-02-27T19:04:08.756Z,68.23
2023-02-27T19:06:40.161Z,68.10
2023-02-27T19:09:08.920Z,68.27
2023-02-27T19:11:35.927Z,68.28
2023-02-27T19:14:05.521Z,68.23
2023-02-27T19:16:32.779Z,68.42
2023-02-27T19:19:01.393Z,68.43
2023-02-27T19:21:28.293Z,68.34
2023-02-27T19:23:54.995Z,68.47
2023-02-27T19:26:22.609Z,68.42
2023-02-27T19:28:53.478Z,68.35
2023-02-27T19:31:22.751Z,68.29
2023-02-27T19:33:49.483Z,68.32
2023-02-27T19:36:19.143Z,68.32
2023-02-27T19:38:45.804Z,68.42
2023-02-27T19:41:13.901Z,68.42
2023-02-27T19:43:41.193Z,68.27
2023-02-27T19:46:19.537Z,68.30
2023-02-27T19:48:46.440Z,68.32
2023-02-27T19:51:14.295Z,68.22
2023-02-27T19:53:42.138Z,68.33
2023-02-27T19:56:13.234Z,68.31
2023-02-27T19:58:40.364Z,68.28
2023-02-27T20:01:07.041Z,68.29
2023-02-27T20:03:34.426Z,68.26
2023-02-27T20:06:05.132Z,68.09
2023-02-27T20:08:32.947Z,68.00
2023-02-27T20:11:01.739Z,68.04
2023-02-27T20:13:28.597Z,67.96
2023-02-27T20:16:03.316Z,67.86
2023-02-27T20:18:30.902Z,67.89
2023-02-27T20:21:02.655Z,67.88
2023-02-27T20:23:31.024Z,67.92
2023-02-27T20:25:58.077Z,67.99
2023-02-27T20:28:24.538Z,67.96
2023-02-27T20:30:50.988Z,67.90
2023-02-27T20:33:18.008Z,67.92
2023-02-27T20:35:44.615Z,68.02
2023-02-27T20:38:11.408Z,67.89
2023-02-27T20:40:37.907Z,67.93
2023-02-27T20:43:04.361Z,67.97
2023-02-27T20:45:31.082Z,67.91
2023-02-27T20:47:57.612Z,67.90
2023-02-27T20:50:24.031Z,67.92
2023-02-27T20:52:53.865Z,67.95
2023-02-27T20:55:20.698Z,67.87
2023-02-27T20:57:47.131Z,67.84
2023-02-27T21:00:14.510Z,67.83
2023-02-27T21:02:41.073Z,67.90
2023-02-27T21:05:08.290Z,67.87
2023-02-27T21:07:35.226Z,67.92
2023-02-27T21:10:01.700Z,67.90
2023-02-27T21:12:28.278Z,67.92
2023-02-27T21:14:55.444Z,67.87
2023-02-27T21:17:24.358Z,67.80
2023-02-27T21:19:51.500Z,67.89
2023-02-27T21:22:17.930Z,67.89
2023-02-27T21:24:46.044Z,67.87
2023-02-27T21:27:12.543Z,67.89
2023-02-27T21:29:39.118Z,67.97
2023-02-27T21:32:06.723Z,68.03
2023-02-27T21:34:33.248Z,68.02
2023-02-27T21:37:01.872Z,67.95
2023-02-27T21:39:28.536Z,68.12
2023-02-27T21:41:55.148Z,68.14
2023-02-27T21:44:26.328Z,68.26
2023-02-27T21:46:53.475Z,68.23
2023-02-27T21:49:28.157Z,68.28
2023-02-27T21:51:54.977Z,68.29
2023-02-27T21:54:21.926Z,68.19
2023-02-27T21:56:48.832Z,68.20
2023-02-27T21:59:16.671Z,68.16
2023-02-27T22:01:46.581Z,68.16
2023-02-27T22:04:15.238Z,68.07
2023-02-27T22:06:41.819Z,68.19
2023-02-27T22:09:08.513Z,68.12
2023-02-27T22:11:35.561Z,68.22
2023-02-27T22:27:36.948Z,68.29
2023-02-27T22:30:05.300Z,68.24
2023-02-27T22:32:33.156Z,68.23
2023-02-27T22:35:01.440Z,68.35
2023-02-27T22:37:29.431Z,68.30
2023-02-27T22:39:57.367Z,68.17
2023-02-27T22:42:25.300Z,68.10
2023-02-27T22:44:53.214Z,68.12
2023-02-27T22:47:21.137Z,68.21
2023-02-27T22:49:52.115Z,68.21
2023-02-27T22:52:20.109Z,68.24
2023-02-27T22:54:49.997Z,68.23
2023-02-27T22:57:17.908Z,68.03
2023-02-27T22:59:45.856Z,68.23
2023-02-27T23:02:13.789Z,68.33
2023-02-27T23:04:41.794Z,68.19
2023-02-27T23:07:09.860Z,68.18
2023-02-27T23:09:37.742Z,68.22
2023-02-27T23:12:05.991Z,68.14
2023-02-27T23:14:34.008Z,68.24
2023-02-27T23:17:01.907Z,68.29
2023-02-27T23:19:29.914Z,68.50
2023-02-27T23:21:57.786Z,68.40
2023-02-27T23:24:25.689Z,68.42
2023-02-27T23:26:53.626Z,68.58
2023-02-27T23:29:21.877Z,68.49
2023-02-27T23:31:50.256Z,68.46
2023-02-27T23:34:18.437Z,68.43
2023-02-27T23:36:46.346Z,68.52
2023-02-27T23:39:14.297Z,68.42
2023-02-27T23:41:42.548Z,68.35
2023-02-27T23:44:10.462Z,68.17
2023-02-27T23:46:38.484Z,68.33
2023-02-27T23:49:07.183Z,68.34
2023-02-27T23:51:35.576Z,68.19
2023-02-27T23:54:03.798Z,68.31
2023-02-27T23:56:31.798Z,68.24
2023-02-27T23:59:02.186Z,68.29
